Главная страница
METAR-TAF:

METAR-TAF

Аэропорты :

Дубай, Объединенные Арабские Эмираты

широта: 25-15-10N, долгота: 055-21-52E, высота над уровнем моря: 8 м

Текущие метеонаблюдения

Эта сводка был подготовлена 59 минут назад, в 21:00 UTC
Ветер 3 Узел от юго-западный, изменяющийся между южный и западный
Температура 31°C
Влажность 40%
Давление 1009 hPa
Видимость 10 км и более
Нет облачности ниже 1500 м, и нет кучево-дождевой облачности

METAR: OMDB 252100Z 22003KT 180V270 CAVOK 31/16 Q1009 NOSIG

Время: 01:59 (21:59 UTC)

Прогноз

Эта сводка был подготовлена 5 часа и 3 минут назад, в 16:56 UTC
Прогноз действительный с 25-го 18 UTC до 27-го 00 UTC
Ветер 2 Узел переменных направлений
Видимость: 8000 м
изменения
С 26-го 06 UTC до 26-го 08 UTC
Ветер 12 Узел от западно-северо-западный
изменения
С 26-го 15 UTC до 26-го 17 UTC
Ветер 5 Узел от восточно-юго-восточный

TAF: OMDB 251656Z 2518/2700 VRB02KT 8000 NSC BECMG 2606/2608 30012KT BECMG 2615/2617 12005KT

Метеонаблюдения и прогнозы для более 4000 аэропортов (сводки METAR и TAF).

Имеющиеся станции представлены на карте желтыми и красными точками.

Чтобы увидеть название станции, наведите на нее мышь.

Затем щелкните, чтобы увидеть метеонаблюдения и метеопрогнозы.

Управление картой: чтобы увеличить масштаб, щелкните зеленые кнопки с черным крестиком; чтобы уменьшить масштаб, щелкните зеленую кнопку с тире; для просмотра соседних карт щелкайте зеленые стрелки.


METAR-TAF: